Time;durP1;ratioP1;P1;durP2;ratioP2;P2;SDS_P1;SDS_P2;PMS_P1;PMS_P2;Temp;Humidity;BMP_temperature;BMP_pressure;BME280_temperature;BME280_humidity;BME280_pressure;Samples;Min_cycle;Max_cycle;Signal;HPM_P1;HPM_P2
2023/06/16 00:02:12;;;;;;;8.15;4.55;;;;;;;17.91;57.71;101761.59;5002735;28;20026;-53
2023/06/16 00:04:38;;;;;;;6.75;4.82;;;;;;;17.88;57.64;101759.19;4994114;28;20263;-50
2023/06/16 00:07:03;;;;;;;15.20;4.32;;;;;;;17.78;58.28;101762.88;4998423;28;20531;-49
2023/06/16 00:09:28;;;;;;;8.45;4.22;;;;;;;17.78;57.87;101758.34;5000617;28;20053;-52
2023/06/16 00:11:54;;;;;;;9.52;4.25;;;;;;;17.75;57.69;101759.47;5000202;28;20353;-51
2023/06/16 00:14:20;;;;;;;6.95;3.90;;;;;;;17.72;58.14;101754.38;5001431;28;20022;-50
2023/06/16 00:16:47;;;;;;;7.35;4.25;;;;;;;17.67;58.07;101751.28;5001276;28;20522;-52
2023/06/16 00:19:13;;;;;;;8.88;4.68;;;;;;;17.63;58.18;101751.72;4998552;28;20456;-52
2023/06/16 00:21:41;;;;;;;10.50;4.82;;;;;;;17.62;58.03;101750.88;4998381;28;20030;-49
2023/06/16 00:24:08;;;;;;;6.32;4.70;;;;;;;17.62;57.28;101750.88;5000097;28;20430;-53
2023/06/16 00:26:34;;;;;;;10.75;4.57;;;;;;;17.54;57.32;101756.94;5002197;28;20030;-52
2023/06/16 00:28:59;;;;;;;9.30;4.97;;;;;;;17.55;57.03;101755.94;4998860;28;20026;-50
2023/06/16 00:31:29;;;;;;;7.25;4.95;;;;;;;17.56;57.14;101757.63;5000613;28;20058;-52
2023/06/16 00:33:55;;;;;;;9.88;4.20;;;;;;;17.52;57.33;101758.91;5000968;28;20034;-50
2023/06/16 00:36:20;;;;;;;7.85;4.45;;;;;;;17.50;57.36;101757.34;4995243;28;20479;-49
2023/06/16 00:38:45;;;;;;;9.98;4.53;;;;;;;17.47;56.79;101757.63;4998892;28;20471;-50
2023/06/16 00:41:11;;;;;;;6.60;4.20;;;;;;;17.47;57.08;101754.94;5000781;28;20030;-50
2023/06/16 00:43:37;;;;;;;8.35;4.70;;;;;;;17.43;57.11;101756.22;4999636;28;20144;-51
2023/06/16 00:46:02;;;;;;;6.20;4.68;;;;;;;17.38;57.26;101756.63;4999404;28;20030;-51
2023/06/16 00:48:27;;;;;;;13.85;4.90;;;;;;;17.33;57.46;101757.03;5002273;28;20022;-49
2023/06/16 00:50:55;;;;;;;4.97;4.47;;;;;;;17.30;57.85;101749.28;5000936;28;20113;-51
2023/06/16 00:53:21;;;;;;;10.10;4.93;;;;;;;17.26;57.90;101753.22;4999165;28;20026;-52
2023/06/16 00:55:47;;;;;;;6.68;5.00;;;;;;;17.26;57.63;101747.03;4997699;28;20109;-52
2023/06/16 00:58:12;;;;;;;10.75;4.47;;;;;;;17.22;57.87;101751.81;5001210;28;20053;-49
2023/06/16 01:00:38;;;;;;;6.82;4.70;;;;;;;17.20;57.73;101751.09;5001622;28;20054;-51
2023/06/16 01:03:05;;;;;;;8.80;4.72;;;;;;;17.17;58.08;101746.88;4999228;28;20076;-52
2023/06/16 01:05:32;;;;;;;5.07;4.57;;;;;;;17.13;57.41;101740.06;5002606;28;20033;-51
2023/06/16 01:08:25;;;;;;;10.43;5.35;;;;;;;17.13;56.69;101741.91;4999971;28;20102;-51
2023/06/16 01:11:08;;;;;;;10.85;4.90;;;;;;;17.06;57.19;101736.25;4995119;28;20088;-52
2023/06/16 01:13:33;;;;;;;8.63;4.60;;;;;;;17.03;57.29;101733.84;5010278;28;20104;-49
2023/06/16 01:16:01;;;;;;;6.60;4.90;;;;;;;17.01;57.64;101733.13;4998221;28;20102;-52
2023/06/16 01:18:27;;;;;;;6.78;4.53;;;;;;;16.98;56.86;101738.78;5003442;28;20084;-50
2023/06/16 01:20:58;;;;;;;8.55;4.97;;;;;;;16.98;56.81;101736.91;5004278;28;20056;-52
2023/06/16 01:23:58;;;;;;;8.27;4.63;;;;;;;17.00;56.42;101734.09;5006493;28;20026;-52
2023/06/16 01:26:28;;;;;;;9.68;4.80;;;;;;;16.96;56.73;101738.91;5005767;28;20053;-50
2023/06/16 01:28:54;;;;;;;11.18;5.45;;;;;;;16.94;56.57;101738.19;5004380;28;20019;-51
2023/06/16 01:31:21;;;;;;;10.20;5.07;;;;;;;16.94;56.54;101740.88;5001065;28;20159;-53
2023/06/16 01:33:47;;;;;;;7.13;5.25;;;;;;;16.89;56.21;101735.09;5001988;28;20064;-51
2023/06/16 01:36:15;;;;;;;7.95;5.00;;;;;;;16.88;56.60;101738.75;5003197;28;20105;-52
2023/06/16 01:38:41;;;;;;;8.25;5.22;;;;;;;16.87;56.95;101741.56;4996188;28;20050;-49
2023/06/16 01:41:06;;;;;;;9.70;5.43;;;;;;;16.84;57.20;101739.97;5003604;28;20092;-53
2023/06/16 01:43:34;;;;;;;8.48;5.18;;;;;;;16.85;56.89;101739.00;5002479;28;20049;-51
2023/06/16 01:46:00;;;;;;;7.68;5.15;;;;;;;16.77;57.67;101741.50;5004878;28;20034;-49
2023/06/16 01:48:26;;;;;;;6.97;5.22;;;;;;;16.81;57.29;101738.41;5003656;28;20038;-50
2023/06/16 01:50:52;;;;;;;9.07;5.05;;;;;;;16.79;57.27;101743.06;5004122;28;20480;-49
2023/06/16 01:53:17;;;;;;;8.73;5.93;;;;;;;16.78;57.16;101729.78;5003924;28;20022;-51
2023/06/16 01:55:47;;;;;;;11.07;5.38;;;;;;;16.71;57.04;101729.47;5002849;28;20022;-49
2023/06/16 01:58:13;;;;;;;8.38;5.45;;;;;;;16.69;56.86;101731.47;5003294;28;20022;-50
2023/06/16 02:00:45;;;;;;;9.80;5.75;;;;;;;16.68;56.96;101729.75;5004464;28;20086;-51
2023/06/16 02:03:24;;;;;;;10.80;6.18;;;;;;;16.60;56.77;101725.09;5000004;28;20475;-52
2023/06/16 02:05:53;;;;;;;8.45;6.13;;;;;;;16.63;57.38;101732.00;4997838;28;20026;-49
2023/06/16 02:08:23;;;;;;;7.67;5.67;;;;;;;16.59;57.72;101734.09;5003399;28;20165;-50
2023/06/16 02:10:48;;;;;;;9.13;5.80;;;;;;;16.60;57.53;101740.31;5001082;28;20022;-49
2023/06/16 02:13:14;;;;;;;11.35;5.82;;;;;;;16.56;57.00;101736.22;4997094;28;20033;-50
2023/06/16 02:15:39;;;;;;;10.40;5.50;;;;;;;16.54;57.69;101735.50;5001487;28;20495;-50
2023/06/16 02:18:05;;;;;;;7.20;5.32;;;;;;;16.52;57.24;101740.13;5002835;28;20022;-51
2023/06/16 02:20:30;;;;;;;10.27;5.55;;;;;;;16.46;57.76;101738.84;5001743;28;20439;-53
2023/06/16 02:22:55;;;;;;;6.38;5.68;;;;;;;16.43;57.71;101739.09;5003319;28;20466;-50
2023/06/16 02:25:20;;;;;;;10.55;6.22;;;;;;;16.36;58.49;101738.78;4997320;28;20472;-50
2023/06/16 02:27:47;;;;;;;11.00;5.50;;;;;;;16.33;58.15;101736.38;5001404;28;20105;-49
2023/06/16 02:30:13;;;;;;;12.65;5.80;;;;;;;16.33;57.65;101735.53;5000253;28;20073;-49
2023/06/16 02:32:39;;;;;;;7.05;5.90;;;;;;;16.29;57.42;101748.38;5005137;28;20034;-50
2023/06/16 02:35:06;;;;;;;8.77;6.40;;;;;;;16.27;57.78;101753.00;5000568;28;20113;-51
2023/06/16 02:37:35;;;;;;;7.38;5.75;;;;;;;16.26;58.01;101749.47;4998087;28;20356;-51
2023/06/16 02:40:00;;;;;;;;;;;;;;;16.39;55.91;101743.88;5000806;28;20026;-53
2023/06/16 02:42:26;;;;;;;9.18;5.55;;;;;;;16.26;58.71;101743.25;5000133;28;20434;-50
2023/06/16 02:44:51;;;;;;;11.20;6.18;;;;;;;16.19;59.39;101742.09;5001781;28;20057;-53
2023/06/16 02:47:16;;;;;;;10.00;6.20;;;;;;;16.17;59.64;101742.22;5000533;28;20098;-50
2023/06/16 02:49:42;;;;;;;8.67;5.47;;;;;;;16.13;60.46;101745.31;5000798;28;20305;-51
2023/06/16 02:52:10;;;;;;;12.05;6.18;;;;;;;16.11;60.15;101742.75;5001471;28;20284;-50
2023/06/16 02:54:36;;;;;;;9.85;5.85;;;;;;;16.03;60.72;101738.03;4999704;28;20022;-51
2023/06/16 02:57:01;;;;;;;8.85;5.93;;;;;;;15.96;60.42;101734.19;5001562;28;20755;-49
2023/06/16 02:59:26;;;;;;;12.50;6.45;;;;;;;15.98;60.31;101731.38;5000285;28;20018;-52
2023/06/16 03:01:51;;;;;;;9.67;6.00;;;;;;;15.91;60.75;101737.25;5001191;28;20114;-49
2023/06/16 03:04:17;;;;;;;14.60;6.20;;;;;;;15.83;60.36;101739.72;4999768;28;20281;-50
2023/06/16 03:06:44;;;;;;;11.45;6.22;;;;;;;15.79;60.33;101740.16;5001366;28;20088;-52
2023/06/16 03:09:11;;;;;;;7.57;6.28;;;;;;;15.69;61.67;101743.56;4999836;28;20030;-52
2023/06/16 03:11:36;;;;;;;11.82;6.10;;;;;;;15.63;61.49;101743.22;4999248;28;20348;-53
2023/06/16 03:14:02;;;;;;;11.30;6.78;;;;;;;15.61;61.38;101745.19;4996223;28;20117;-50
2023/06/16 03:16:27;;;;;;;7.88;6.55;;;;;;;15.53;62.09;101753.84;5003123;28;20137;-50
2023/06/16 03:18:54;;;;;;;8.20;5.88;;;;;;;15.50;62.37;101746.06;5002405;28;20026;-51
2023/06/16 03:21:20;;;;;;;11.32;6.07;;;;;;;15.49;62.48;101739.88;5000014;28;20033;-50
2023/06/16 03:23:45;;;;;;;12.90;6.22;;;;;;;15.49;62.48;101747.06;5001906;28;20049;-51
2023/06/16 03:26:12;;;;;;;11.98;6.15;;;;;;;15.39;63.33;101749.66;5002544;28;20022;-50
2023/06/16 03:28:37;;;;;;;10.50;6.18;;;;;;;15.39;63.15;101748.78;5002617;28;20058;-49
2023/06/16 03:31:04;;;;;;;9.35;6.07;;;;;;;15.32;64.09;101754.66;5004099;28;20131;-52
2023/06/16 03:33:31;;;;;;;7.50;6.05;;;;;;;15.30;63.95;101747.72;5000552;28;20033;-50
2023/06/16 03:35:56;;;;;;;11.02;6.43;;;;;;;15.27;64.12;101748.84;4997608;28;20026;-49
2023/06/16 03:38:22;;;;;;;12.98;6.57;;;;;;;15.22;64.22;101750.16;4999390;28;20030;-50
2023/06/16 03:40:47;;;;;;;19.10;6.68;;;;;;;15.16;64.56;101747.03;5001945;28;20030;-51
2023/06/16 03:43:12;;;;;;;11.57;6.63;;;;;;;15.13;64.90;101752.63;4997536;28;20484;-53
2023/06/16 03:45:38;;;;;;;8.63;6.13;;;;;;;15.13;64.88;101751.78;5002075;28;20475;-50
2023/06/16 03:48:03;;;;;;;13.77;6.67;;;;;;;15.05;65.57;101748.88;4999172;28;20117;-50
2023/06/16 03:50:29;;;;;;;11.73;6.43;;;;;;;15.05;65.55;101749.72;5000966;28;20277;-49
2023/06/16 03:52:54;;;;;;;12.35;6.95;;;;;;;15.06;65.20;101750.59;4999896;28;20064;-50
2023/06/16 03:55:19;;;;;;;12.63;6.40;;;;;;;15.05;65.37;101752.41;4998895;28;20035;-49
2023/06/16 03:57:44;;;;;;;15.80;7.00;;;;;;;15.08;65.18;101751.31;4999955;28;20058;-49
2023/06/16 04:00:10;;;;;;;12.10;7.00;;;;;;;15.06;65.16;101750.59;4998833;28;20029;-50
2023/06/16 04:02:36;;;;;;;10.15;6.63;;;;;;;15.05;65.33;101755.06;4998508;28;20391;-52
2023/06/16 04:05:02;;;;;;;11.55;6.50;;;;;;;15.02;65.81;101758.03;5001483;28;20022;-50
2023/06/16 04:07:27;;;;;;;8.50;6.75;;;;;;;15.02;66.11;101758.03;4998587;28;20026;-54
2023/06/16 04:09:53;;;;;;;10.85;6.20;;;;;;;14.95;66.58;101763.03;5000481;28;20471;-52
2023/06/16 04:12:18;;;;;;;8.95;6.55;;;;;;;14.92;67.38;101775.75;4996655;28;20038;-52
2023/06/16 04:14:43;;;;;;;10.70;6.70;;;;;;;14.94;67.07;101771.16;5000265;28;20026;-54
2023/06/16 04:17:09;;;;;;;7.75;6.53;;;;;;;14.92;68.03;101773.97;4997736;28;20030;-49
2023/06/16 04:19:34;;;;;;;9.95;6.32;;;;;;;14.95;67.52;101775.53;5001766;28;20441;-51
2023/06/16 04:21:59;;;;;;;13.52;6.57;;;;;;;14.98;67.48;101775.28;4997259;28;20488;-51
2023/06/16 04:24:25;;;;;;;12.05;7.32;;;;;;;15.02;67.27;101770.53;4996928;28;20030;-50
2023/06/16 04:26:52;;;;;;;14.45;7.38;;;;;;;15.02;67.51;101771.41;4999139;28;20549;-53
2023/06/16 04:29:20;;;;;;;12.45;7.07;;;;;;;15.08;67.11;101773.56;4996940;28;20033;-52
2023/06/16 04:31:47;;;;;;;17.58;6.78;;;;;;;15.09;67.75;101774.44;4994721;28;20057;-49
2023/06/16 04:34:13;;;;;;;16.13;7.00;;;;;;;15.11;67.98;101775.16;5003676;28;20021;-52
2023/06/16 04:36:41;;;;;;;16.73;7.57;;;;;;;15.18;68.03;101776.34;4997881;28;20026;-50
2023/06/16 04:39:07;;;;;;;17.43;7.20;;;;;;;15.18;68.73;101774.50;5001227;28;20433;-49
2023/06/16 04:41:35;;;;;;;14.57;7.18;;;;;;;15.24;68.49;101777.66;4998096;28;20320;-50
2023/06/16 04:44:00;;;;;;;19.27;8.23;;;;;;;15.31;68.84;101779.72;5004622;28;20034;-49
2023/06/16 04:46:25;;;;;;;15.85;6.70;;;;;;;15.35;69.13;101778.50;4998116;28;20426;-49
2023/06/16 04:48:51;;;;;;;17.63;7.50;;;;;;;15.43;69.05;101785.03;4999783;28;20052;-49
2023/06/16 04:51:17;;;;;;;15.82;7.47;;;;;;;15.52;68.38;101779.78;5000436;28;20495;-50
2023/06/16 04:53:43;;;;;;;26.33;8.60;;;;;;;15.60;68.86;101780.97;4999691;28;20353;-51
2023/06/16 04:56:09;;;;;;;35.13;8.45;;;;;;;15.69;68.53;101781.06;4997456;28;20026;-51
2023/06/16 04:58:34;;;;;;;34.70;8.35;;;;;;;15.84;67.28;101780.78;5000887;28;20037;-51
2023/06/16 05:01:00;;;;;;;32.75;9.07;;;;;;;15.95;67.02;101782.56;4999434;28;20018;-51
2023/06/16 05:03:26;;;;;;;27.10;7.95;;;;;;;16.02;67.15;101781.91;4991428;28;20125;-52
2023/06/16 05:05:51;;;;;;;26.27;8.40;;;;;;;16.17;66.13;101778.88;4996900;28;20420;-49
2023/06/16 05:08:16;;;;;;;17.95;8.18;;;;;;;16.21;65.97;101783.03;4997489;28;20037;-50
2023/06/16 05:10:42;;;;;;;15.13;8.50;;;;;;;16.39;65.11;101778.75;4995696;28;20117;-51
2023/06/16 05:13:07;;;;;;;15.93;7.88;;;;;;;16.53;64.13;101782.91;4996682;28;20384;-49
2023/06/16 05:15:33;;;;;;;12.40;7.80;;;;;;;16.65;62.66;101784.53;4997979;28;20027;-50
2023/06/16 05:17:58;;;;;;;16.38;7.97;;;;;;;16.79;62.35;101785.16;5002916;28;20026;-50
2023/06/16 05:20:24;;;;;;;19.60;8.30;;;;;;;16.87;62.49;101787.16;5000167;28;20371;-49
2023/06/16 05:22:49;;;;;;;16.83;7.95;;;;;;;16.94;62.08;101783.81;5004265;28;20034;-51
2023/06/16 05:25:14;;;;;;;16.05;7.75;;;;;;;17.02;61.68;101786.66;4998807;28;20030;-50
2023/06/16 05:27:40;;;;;;;19.83;8.38;;;;;;;17.14;61.23;101790.09;5002327;28;20037;-50
2023/06/16 05:30:06;;;;;;;15.38;7.90;;;;;;;17.29;61.22;101784.34;5001807;28;20072;-51
2023/06/16 05:32:31;;;;;;;17.15;8.68;;;;;;;17.37;60.99;101777.28;5002640;28;20054;-52
2023/06/16 05:34:56;;;;;;;20.95;8.85;;;;;;;17.60;60.59;101781.53;5001457;28;20117;-51
2023/06/16 05:37:22;;;;;;;14.93;7.88;;;;;;;17.78;60.08;101781.69;5002077;28;20030;-51
2023/06/16 05:39:49;;;;;;;17.83;8.43;;;;;;;17.97;58.21;101791.59;5000396;28;20043;-51
2023/06/16 05:42:15;;;;;;;17.30;8.38;;;;;;;18.18;57.82;101789.59;5001306;28;20117;-50
2023/06/16 05:44:41;;;;;;;12.77;7.65;;;;;;;18.31;57.09;101791.97;4999837;28;20022;-51
2023/06/16 05:47:07;;;;;;;13.82;7.28;;;;;;;18.58;56.05;101791.16;5000166;28;20470;-50
2023/06/16 05:49:33;;;;;;;14.18;7.93;;;;;;;18.73;55.51;101782.63;5000495;28;20053;-51
2023/06/16 05:51:59;;;;;;;10.27;7.60;;;;;;;18.98;54.89;101789.19;4997789;28;20461;-50
2023/06/16 05:54:24;;;;;;;11.75;7.68;;;;;;;19.20;54.33;101785.22;5001556;28;20049;-50
2023/06/16 05:56:50;;;;;;;15.70;8.10;;;;;;;19.44;53.81;101789.22;5004752;28;20669;-52
2023/06/16 05:59:15;;;;;;;13.80;8.05;;;;;;;19.64;52.59;101792.63;5000580;28;20029;-49
2023/06/16 06:01:40;;;;;;;18.17;9.05;;;;;;;19.85;52.75;101787.78;5003354;28;20080;-50
2023/06/16 06:04:06;;;;;;;10.80;7.88;;;;;;;20.09;50.77;101797.91;5005327;28;20032;-53
2023/06/16 06:06:31;;;;;;;10.40;7.33;;;;;;;20.21;51.18;101797.66;4996920;28;20091;-51
2023/06/16 06:08:56;;;;;;;12.60;7.90;;;;;;;20.43;50.36;101797.09;5006288;28;20751;-51
2023/06/16 06:11:21;;;;;;;10.10;8.32;;;;;;;20.70;47.35;101798.84;5003435;28;20025;-53
2023/06/16 06:13:47;;;;;;;10.27;7.97;;;;;;;20.89;46.00;101805.00;5000297;28;20373;-52
2023/06/16 06:16:13;;;;;;;13.73;7.85;;;;;;;21.09;45.02;101800.16;5003229;28;20503;-50
2023/06/16 06:18:38;;;;;;;13.77;8.00;;;;;;;21.26;45.51;101803.75;5004147;28;20026;-49
2023/06/16 06:21:04;;;;;;;13.52;8.38;;;;;;;21.49;45.81;101792.38;5003437;28;20033;-49
2023/06/16 06:23:29;;;;;;;14.40;8.60;;;;;;;21.56;44.26;101798.78;5002671;28;20034;-49
2023/06/16 06:25:55;;;;;;;12.73;8.07;;;;;;;21.82;44.44;101795.94;5001482;28;20084;-49
2023/06/16 06:28:20;;;;;;;13.43;7.93;;;;;;;22.08;44.29;101803.03;4996818;28;20053;-48
2023/06/16 06:30:45;;;;;;;12.30;8.80;;;;;;;22.37;42.99;101807.09;4998239;28;20104;-51
2023/06/16 06:33:11;;;;;;;11.27;8.20;;;;;;;22.43;42.89;101809.09;4994990;28;20018;-53
2023/06/16 06:35:36;;;;;;;13.50;8.15;;;;;;;22.64;42.62;101812.09;4990210;28;20030;-50
2023/06/16 06:38:03;;;;;;;9.50;7.47;;;;;;;22.83;41.56;101810.00;4998004;28;20053;-53
2023/06/16 06:40:28;;;;;;;11.02;7.35;;;;;;;23.03;41.01;101807.72;5001272;28;20651;-50
2023/06/16 06:42:53;;;;;;;8.65;7.03;;;;;;;23.17;39.59;101809.72;4999064;28;20035;-50
2023/06/16 06:45:19;;;;;;;12.90;7.70;;;;;;;23.27;38.86;101817.63;4998582;28;20030;-53
2023/06/16 06:47:44;;;;;;;10.93;7.32;;;;;;;23.52;39.08;101821.03;5000693;28;20199;-49
2023/06/16 06:50:10;;;;;;;10.63;7.65;;;;;;;23.63;39.08;101812.50;4995105;28;20037;-50
2023/06/16 06:52:35;;;;;;;16.77;8.43;;;;;;;23.92;38.61;101810.09;5000847;28;20044;-49
2023/06/16 06:55:01;;;;;;;13.60;7.55;;;;;;;24.00;37.96;101816.31;4998248;28;20153;-52
2023/06/16 06:57:26;;;;;;;10.88;8.07;;;;;;;24.16;37.17;101809.03;4995801;28;20070;-51
2023/06/16 06:59:51;;;;;;;10.40;7.18;;;;;;;24.47;36.05;101819.75;5001482;28;20030;-53
2023/06/16 07:02:17;;;;;;;9.57;6.85;;;;;;;24.60;36.14;101819.16;4997217;28;20069;-49
2023/06/16 07:04:43;;;;;;;12.85;7.55;;;;;;;24.83;36.13;101818.19;4999011;28;20379;-52
2023/06/16 07:07:09;;;;;;;9.63;7.00;;;;;;;25.09;34.50;101826.69;5000678;28;20042;-53
2023/06/16 07:09:34;;;;;;;11.13;7.13;;;;;;;25.12;33.45;101826.31;5000643;28;20035;-52
2023/06/16 07:12:00;;;;;;;9.07;6.43;;;;;;;25.42;34.57;101818.13;5000810;28;20471;-51
2023/06/16 07:14:26;;;;;;;7.22;6.25;;;;;;;25.64;33.28;101823.56;5001888;28;20030;-53
2023/06/16 07:16:52;;;;;;;11.55;6.07;;;;;;;25.94;32.69;101813.38;5000247;28;20034;-47
2023/06/16 07:19:17;;;;;;;8.38;6.22;;;;;;;25.97;33.47;101825.81;4998673;28;20595;-48
2023/06/16 07:21:43;;;;;;;6.20;5.40;;;;;;;26.36;31.94;101825.28;4999840;28;20104;-46
2023/06/16 07:24:08;;;;;;;8.30;6.07;;;;;;;26.49;31.16;101816.34;4999091;28;20447;-48
2023/06/16 07:26:33;;;;;;;7.75;5.47;;;;;;;26.68;31.38;101820.28;5001949;28;20293;-50
2023/06/16 07:29:00;;;;;;;8.50;5.30;;;;;;;26.80;31.17;101815.09;5001146;28;20271;-49
2023/06/16 07:31:26;;;;;;;9.13;6.20;;;;;;;26.95;30.57;101829.41;4998766;28;20491;-47
2023/06/16 07:33:52;;;;;;;8.63;5.60;;;;;;;27.25;30.44;101823.66;4998064;28;20096;-48
2023/06/16 07:36:17;;;;;;;11.77;6.13;;;;;;;27.36;30.85;101819.50;4998951;28;20085;-48
2023/06/16 07:38:42;;;;;;;7.70;5.28;;;;;;;27.52;29.18;101822.94;4999046;28;20281;-48
2023/06/16 07:41:08;;;;;;;11.18;5.70;;;;;;;27.71;28.49;101821.28;4999965;28;20023;-50
2023/06/16 07:43:34;;;;;;;6.68;4.75;;;;;;;27.88;28.34;101819.84;4999030;28;20482;-51
2023/06/16 07:45:59;;;;;;;9.55;5.07;;;;;;;27.95;27.97;101820.69;4998232;28;20027;-51
2023/06/16 07:48:25;;;;;;;7.35;4.90;;;;;;;28.09;27.35;101817.97;4997102;28;20502;-48
2023/06/16 07:50:50;;;;;;;5.30;4.30;;;;;;;28.14;27.71;101816.28;4999382;28;20038;-50
2023/06/16 07:53:16;;;;;;;7.68;4.50;;;;;;;28.34;27.14;101820.88;4997555;28;20034;-48
2023/06/16 07:55:41;;;;;;;10.45;4.32;;;;;;;28.48;28.39;101821.69;4999893;28;20042;-48
2023/06/16 07:58:06;;;;;;;10.73;5.43;;;;;;;28.74;26.82;101812.63;4996912;28;20483;-51
2023/06/16 08:00:32;;;;;;;6.20;4.37;;;;;;;28.84;25.69;101814.91;5000075;28;20281;-48
2023/06/16 08:02:57;;;;;;;7.50;4.80;;;;;;;28.93;26.42;101819.09;4998232;28;20285;-48
2023/06/16 08:05:22;;;;;;;7.93;4.10;;;;;;;29.14;26.03;101816.06;4997181;28;20774;-48
2023/06/16 08:07:48;;;;;;;6.55;4.53;;;;;;;29.20;25.63;101808.06;4988822;28;20297;-50
2023/06/16 08:10:16;;;;;;;5.45;4.75;;;;;;;29.46;25.55;101809.78;4997279;28;20062;-49
2023/06/16 08:12:41;;;;;;;5.85;4.53;;;;;;;29.71;25.90;101802.47;4996353;28;20022;-48
2023/06/16 08:15:07;;;;;;;8.32;5.10;;;;;;;29.71;24.24;101810.69;4998374;28;20030;-48
2023/06/16 08:17:32;;;;;;;9.48;5.03;;;;;;;30.08;25.33;101799.03;5001443;28;20037;-48
2023/06/16 08:19:57;;;;;;;6.20;4.28;;;;;;;30.05;24.20;101807.69;4991747;28;20030;-48
2023/06/16 08:22:23;;;;;;;9.13;4.40;;;;;;;30.33;24.71;101807.22;5000083;28;20402;-48
2023/06/16 08:24:48;;;;;;;11.00;4.57;;;;;;;30.49;24.72;101803.06;5003352;28;20280;-50
2023/06/16 08:27:14;;;;;;;11.50;4.60;;;;;;;30.43;23.16;101813.03;5000810;28;20276;-49
2023/06/16 08:29:39;;;;;;;8.68;3.80;;;;;;;30.60;23.76;101802.31;5000386;28;21180;-51
2023/06/16 08:32:06;;;;;;;5.72;4.20;;;;;;;30.42;22.99;101803.13;5001684;28;20050;-48
2023/06/16 08:34:31;;;;;;;8.52;4.10;;;;;;;30.75;23.12;101798.34;4992526;28;20129;-49
2023/06/16 08:36:56;;;;;;;7.10;4.38;;;;;;;30.87;22.61;101799.25;5001738;28;20562;-48
2023/06/16 08:39:22;;;;;;;8.68;3.88;;;;;;;30.90;22.54;101798.78;4996327;28;20034;-51
2023/06/16 08:41:49;;;;;;;4.97;3.70;;;;;;;31.03;23.01;101799.69;4998476;28;20060;-49
2023/06/16 08:44:18;;;;;;;9.55;3.72;;;;;;;31.33;22.21;101795.06;5001343;28;20631;-51
2023/06/16 08:46:44;;;;;;;7.97;3.88;;;;;;;31.38;20.87;101799.00;4998547;28;20122;-51
2023/06/16 08:49:09;;;;;;;6.78;3.53;;;;;;;31.53;22.14;101796.72;4998228;28;20057;-51
2023/06/16 08:51:37;;;;;;;6.53;3.67;;;;;;;31.58;21.00;101794.09;4984451;28;20141;-52
2023/06/16 08:54:09;;;;;;;4.80;3.97;;;;;;;31.65;21.35;101794.00;4986470;28;20042;-51
2023/06/16 08:56:36;;;;;;;4.15;3.58;;;;;;;31.81;20.41;101790.56;4998702;28;20049;-50
2023/06/16 08:59:03;;;;;;;8.38;3.30;;;;;;;31.94;20.27;101794.13;4995705;28;20018;-50
2023/06/16 09:01:30;;;;;;;4.53;3.65;;;;;;;32.21;20.79;101789.03;4999054;28;20486;-51
2023/06/16 09:03:55;;;;;;;6.65;4.10;;;;;;;32.27;20.50;101782.56;4995142;28;20034;-51
2023/06/16 09:06:21;;;;;;;4.10;3.50;;;;;;;32.25;20.55;101791.06;5000155;28;20030;-51
2023/06/16 09:08:47;;;;;;;5.72;3.53;;;;;;;32.48;20.77;101791.28;5001871;28;20350;-52
2023/06/16 09:11:21;;;;;;;7.68;4.28;;;;;;;32.43;20.57;101794.75;5004378;28;20026;-50
2023/06/16 09:13:46;;;;;;;4.47;3.30;;;;;;;32.63;20.44;101792.47;4994647;28;20038;-53
2023/06/16 09:16:16;;;;;;;7.50;3.50;;;;;;;32.96;19.53;101799.19;4998299;28;20052;-52
2023/06/16 09:18:44;;;;;;;7.25;3.95;;;;;;;33.05;19.51;101799.63;4995987;28;20045;-52
2023/06/16 09:21:11;;;;;;;8.73;3.90;;;;;;;33.02;19.87;101797.38;5000722;28;20025;-51
2023/06/16 09:23:38;;;;;;;7.65;3.25;;;;;;;33.27;19.69;101796.22;4995940;28;20200;-53
2023/06/16 09:26:13;;;;;;;5.28;3.13;;;;;;;33.47;19.74;101787.50;4972217;28;20455;-50
2023/06/16 09:28:39;;;;;;;11.32;3.45;;;;;;;33.71;18.88;101791.81;4991580;28;20113;-50
2023/06/16 09:31:07;;;;;;;5.38;3.40;;;;;;;33.69;18.40;101787.63;4991444;28;20042;-51
2023/06/16 09:33:33;;;;;;;;;;;;;;;34.37;20.70;101790.31;4996584;28;20484;-52
2023/06/16 09:35:58;;;;;;;3.17;2.97;;;;;;;34.29;17.69;101791.59;5012750;28;19921;-52
2023/06/16 09:38:24;;;;;;;7.30;3.20;;;;;;;34.40;17.78;101785.13;4995634;28;20038;-50
2023/06/16 09:40:49;;;;;;;4.28;3.08;;;;;;;34.27;17.69;101779.97;4992857;28;20239;-51
2023/06/16 09:43:14;;;;;;;4.85;2.83;;;;;;;34.33;17.75;101784.50;4997701;28;20029;-52
2023/06/16 09:45:41;;;;;;;2.88;2.58;;;;;;;34.58;17.92;101775.72;5003834;28;20034;-52
2023/06/16 09:48:10;;;;;;;3.03;2.80;;;;;;;34.35;17.43;101779.56;5002474;28;20112;-49
2023/06/16 09:50:37;;;;;;;7.22;2.78;;;;;;;34.70;17.55;101775.56;4998667;28;20033;-48
2023/06/16 09:53:07;;;;;;;5.60;3.00;;;;;;;34.59;17.69;101773.78;5002003;28;20033;-48
2023/06/16 09:55:37;;;;;;;6.70;2.67;;;;;;;34.54;17.08;101777.34;5000826;28;20034;-48
2023/06/16 09:58:02;;;;;;;2.97;2.65;;;;;;;34.53;16.17;101777.59;5004726;28;20022;-48
2023/06/16 10:00:30;;;;;;;3.80;2.80;;;;;;;34.33;16.67;101776.22;5000715;28;20510;-49
2023/06/16 10:02:56;;;;;;;3.55;3.05;;;;;;;34.63;16.59;101777.72;4999981;28;20029;-48
2023/06/16 10:05:24;;;;;;;3.03;2.80;;;;;;;34.74;16.68;101774.03;5002854;28;20024;-50
2023/06/16 10:07:53;;;;;;;5.18;2.90;;;;;;;34.91;17.02;101778.59;4994472;28;20026;-48
2023/06/16 10:10:22;;;;;;;4.35;2.97;;;;;;;34.78;16.58;101766.06;5003836;28;20387;-47
2023/06/16 10:12:49;;;;;;;3.60;3.05;;;;;;;34.58;18.51;101761.09;4994513;28;20290;-48
2023/06/16 10:15:26;;;;;;;3.22;2.90;;;;;;;34.72;17.02;101762.38;5001875;28;20030;-48
2023/06/16 10:17:55;;;;;;;4.25;3.10;;;;;;;34.52;16.81;101760.19;5003374;28;20022;-49
2023/06/16 10:20:23;;;;;;;4.55;2.47;;;;;;;34.73;16.96;101761.31;4999149;28;20450;-48
2023/06/16 10:22:48;;;;;;;;;;;;;;;35.47;18.28;101765.38;5001013;28;20046;-48
2023/06/16 10:25:14;;;;;;;4.05;2.95;;;;;;;34.97;17.30;101755.50;5000323;28;20375;-48
2023/06/16 10:27:41;;;;;;;11.07;2.83;;;;;;;35.12;16.92;101755.63;4995133;28;20287;-49
2023/06/16 10:30:16;;;;;;;3.55;3.03;;;;;;;35.28;16.64;101759.41;4999911;28;20088;-48
2023/06/16 10:32:48;;;;;;;8.18;3.10;;;;;;;35.41;17.06;101754.53;4991734;28;20030;-48
2023/06/16 10:35:14;;;;;;;4.10;2.90;;;;;;;35.41;16.59;101755.41;4995264;28;20038;-48
2023/06/16 10:37:40;;;;;;;4.03;2.90;;;;;;;35.54;16.49;101745.81;5006709;28;20029;-48
2023/06/16 10:40:08;;;;;;;8.13;3.13;;;;;;;35.80;16.30;101746.88;5003012;28;20551;-49
2023/06/16 10:42:34;;;;;;;;;;;;;;;36.29;17.72;101746.66;4997786;28;20112;-49
2023/06/16 10:45:25;;;;;;;3.05;2.80;;;;;;;36.03;17.42;101751.16;4995496;28;20363;-50
2023/06/16 10:47:56;;;;;;;6.25;2.80;;;;;;;35.71;16.42;101743.75;4999289;28;20022;-48
2023/06/16 10:50:29;;;;;;;6.38;2.80;;;;;;;35.62;16.73;101741.75;4998034;28;20450;-48
2023/06/16 10:52:55;;;;;;;4.90;2.80;;;;;;;35.64;16.09;101750.59;4997638;28;20453;-47
2023/06/16 10:55:33;;;;;;;2.85;2.53;;;;;;;35.86;16.72;101739.47;5003498;28;20117;-48
2023/06/16 10:58:18;;;;;;;4.53;2.67;;;;;;;35.93;16.46;101745.59;4998077;28;20041;-48
2023/06/16 11:00:55;;;;;;;3.63;2.72;;;;;;;35.94;15.39;101734.25;4998482;28;20014;-49
2023/06/16 11:03:21;;;;;;;14.30;3.65;;;;;;;36.22;15.62;101732.22;4998536;28;20045;-48
2023/06/16 11:05:48;;;;;;;5.43;2.70;;;;;;;36.32;15.52;101731.44;4994140;28;20471;-48
2023/06/16 11:08:15;;;;;;;6.07;2.60;;;;;;;36.24;15.41;101727.25;5002523;28;20119;-47
2023/06/16 11:11:05;;;;;;;6.22;2.75;;;;;;;36.45;16.26;101739.22;5000637;28;20058;-48
2023/06/16 11:13:35;;;;;;;5.20;3.08;;;;;;;36.04;14.92;101733.50;4994040;28;20034;-48
2023/06/16 11:16:01;;;;;;;9.30;2.53;;;;;;;36.02;14.23;101730.13;4999246;28;20349;-48
2023/06/16 11:18:28;;;;;;;3.95;2.47;;;;;;;36.11;14.68;101727.72;5003664;28;20388;-48
2023/06/16 11:21:02;;;;;;;2.78;2.50;;;;;;;36.29;15.21;101720.91;4995430;28;20022;-48